Time;durP1;ratioP1;P1;durP2;ratioP2;P2;SDS_P1;SDS_P2;PMS_P1;PMS_P2;Temp;Humidity;BMP_temperature;BMP_pressure;BME280_temperature;BME280_humidity;BME280_pressure;Samples;Min_cycle;Max_cycle;Signal;HPM_P1;HPM_P2
2023/05/19 00:02:24;;;;;;;4.87;3.30;;;;;;;15.92;71.99;94854.41;5084774;28;20667;-45
2023/05/19 00:04:51;;;;;;;2.77;2.57;;;;;;;15.93;72.04;94850.84;5085039;28;20221;-42
2023/05/19 00:07:19;;;;;;;3.53;2.97;;;;;;;15.94;71.99;94850.72;5080912;28;20312;-44
2023/05/19 00:09:47;;;;;;;3.10;2.80;;;;;;;15.91;72.03;94845.88;5085172;28;20205;-44
2023/05/19 00:12:14;;;;;;;5.73;3.20;;;;;;;15.90;72.04;94841.69;5085589;28;20194;-45
2023/05/19 00:14:42;;;;;;;3.47;3.17;;;;;;;15.94;71.95;94845.56;5085929;28;20192;-44
2023/05/19 00:17:11;;;;;;;3.03;2.73;;;;;;;15.95;71.91;94849.72;5083779;28;20699;-44
2023/05/19 00:19:38;;;;;;;5.43;3.07;;;;;;;15.95;71.99;94841.19;5084308;28;20198;-44
2023/05/19 00:22:05;;;;;;;4.20;2.77;;;;;;;15.94;71.99;94845.56;5084819;28;20229;-44
2023/05/19 00:24:32;;;;;;;7.80;3.03;;;;;;;15.95;71.75;94844.56;5084062;28;20532;-45
2023/05/19 00:26:58;;;;;;;4.70;3.30;;;;;;;15.47;71.93;94755.28;5084247;28;20193;-43
2023/05/19 00:29:25;;;;;;;4.97;3.30;;;;;;;15.94;71.86;94831.84;5085462;28;20196;-45
2023/05/19 00:31:52;;;;;;;3.57;3.17;;;;;;;15.89;71.78;94829.78;5084273;28;20182;-44
2023/05/19 00:34:20;;;;;;;3.70;3.40;;;;;;;15.94;72.00;94829.28;5084794;28;20194;-44
2023/05/19 00:36:47;;;;;;;4.17;3.17;;;;;;;15.93;71.94;94828.47;5070795;28;20202;-41
2023/05/19 00:39:14;;;;;;;3.43;3.13;;;;;;;15.94;71.92;94837.00;5071066;28;20186;-44
2023/05/19 00:41:41;;;;;;;3.50;3.20;;;;;;;15.93;71.91;94828.47;5070864;28;20248;-46
2023/05/19 00:44:07;;;;;;;3.97;3.33;;;;;;;15.93;71.93;94828.47;5070641;28;20229;-44
2023/05/19 00:46:34;;;;;;;3.50;3.10;;;;;;;15.88;71.79;94820.41;5071229;28;20193;-46
2023/05/19 00:49:01;;;;;;;3.60;3.30;;;;;;;15.94;72.12;94826.69;5070681;28;20194;-46
2023/05/19 00:51:30;;;;;;;3.57;3.23;;;;;;;15.92;72.01;94819.09;5069792;28;20556;-45
2023/05/19 00:53:57;;;;;;;3.40;3.10;;;;;;;15.83;71.86;94806.41;5070425;28;20284;-42
2023/05/19 00:56:25;;;;;;;3.63;3.33;;;;;;;15.86;71.78;94819.78;5070610;28;20187;-46
2023/05/19 00:58:52;;;;;;;4.00;3.70;;;;;;;15.85;72.07;94825.91;5070803;28;20186;-42
2023/05/19 01:01:20;;;;;;;4.77;3.37;;;;;;;15.83;71.95;94822.69;5070080;28;20202;-42
2023/05/19 01:03:48;;;;;;;3.50;3.20;;;;;;;15.78;72.10;94820.59;5070598;28;20309;-42
2023/05/19 01:06:17;;;;;;;4.83;3.30;;;;;;;15.77;72.09;94824.16;5073066;28;20202;-47
2023/05/19 01:08:46;;;;;;;5.70;3.33;;;;;;;15.75;72.18;94833.81;5072548;28;20229;-45
2023/05/19 01:11:13;;;;;;;3.43;3.13;;;;;;;15.73;72.25;94828.03;5070637;28;20316;-41
2023/05/19 01:13:40;;;;;;;3.53;3.23;;;;;;;15.54;72.32;94802.59;5069858;28;20190;-43
2023/05/19 01:16:12;;;;;;;3.60;3.30;;;;;;;15.65;72.15;94825.50;5070311;28;20205;-41
2023/05/19 01:18:47;;;;;;;4.47;3.53;;;;;;;15.63;72.49;94824.84;5070426;28;20194;-42
2023/05/19 01:21:48;;;;;;;3.60;3.30;;;;;;;15.61;72.33;94826.75;5070012;28;20190;-47
2023/05/19 01:24:45;;;;;;;3.97;3.50;;;;;;;15.56;72.33;94831.59;5069610;28;20659;-44
2023/05/19 01:27:37;;;;;;;3.53;3.23;;;;;;;15.53;72.44;94825.00;5068774;28;20665;-45
2023/05/19 01:30:39;;;;;;;5.50;3.50;;;;;;;15.48;72.52;94829.84;5064735;28;20217;-44
2023/05/19 01:33:09;;;;;;;4.20;3.80;;;;;;;15.46;72.61;94828.41;5008583;28;20581;-44
2023/05/19 01:35:38;;;;;;;3.40;3.13;;;;;;;15.42;72.59;94824.56;5008072;28;20621;-45
2023/05/19 01:38:09;;;;;;;3.87;3.57;;;;;;;15.37;72.66;94819.06;5007480;28;20208;-45
2023/05/19 01:40:38;;;;;;;3.80;3.33;;;;;;;15.37;72.66;94821.63;5007420;28;20623;-45
2023/05/19 01:43:06;;;;;;;4.43;3.40;;;;;;;15.34;72.73;94830.53;5007683;28;20618;-42
2023/05/19 01:45:34;;;;;;;4.13;3.30;;;;;;;15.32;72.89;94835.00;5007710;28;20238;-44
2023/05/19 01:48:04;;;;;;;4.00;3.60;;;;;;;15.28;72.72;94833.72;5006710;28;20196;-44
2023/05/19 01:50:32;;;;;;;3.60;3.27;;;;;;;15.25;72.81;94829.72;5007043;28;20200;-46
2023/05/19 01:52:59;;;;;;;3.83;3.40;;;;;;;15.06;72.82;94804.28;5007264;28;20196;-45
2023/05/19 01:55:26;;;;;;;4.13;3.73;;;;;;;15.10;72.97;94810.72;5006996;28;20195;-44
2023/05/19 01:58:06;;;;;;;4.33;3.47;;;;;;;14.65;72.88;94746.88;5007179;28;20200;-45
2023/05/19 02:00:46;;;;;;;5.03;3.73;;;;;;;15.15;72.91;94836.81;5007292;28;20699;-44
2023/05/19 02:03:26;;;;;;;3.27;3.07;;;;;;;15.14;72.98;94831.81;5017831;28;20194;-44
2023/05/19 02:05:59;;;;;;;3.43;3.13;;;;;;;15.12;73.12;94828.63;5066351;28;20221;-44
2023/05/19 02:08:31;;;;;;;6.37;3.60;;;;;;;15.10;73.06;94827.97;5069541;28;20190;-45
2023/05/19 02:11:03;;;;;;;3.47;3.27;;;;;;;15.05;73.12;94834.41;5069597;28;20247;-44
2023/05/19 02:13:35;;;;;;;3.57;3.27;;;;;;;15.06;73.17;94832.63;5068654;28;20206;-42
2023/05/19 02:16:05;;;;;;;4.03;3.60;;;;;;;15.04;73.12;94837.16;5069198;28;20206;-44
2023/05/19 02:18:34;;;;;;;3.97;3.57;;;;;;;15.00;73.11;94841.81;5069084;28;20190;-42
2023/05/19 02:21:01;;;;;;;4.00;3.30;;;;;;;14.96;73.13;94834.56;5069090;28;20653;-44
2023/05/19 02:23:28;;;;;;;4.63;4.23;;;;;;;14.94;73.15;94834.75;5068742;28;20229;-43
2023/05/19 02:25:54;;;;;;;9.70;4.03;;;;;;;15.00;73.21;94848.72;5068537;28;20210;-43
2023/05/19 02:28:21;;;;;;;4.50;4.07;;;;;;;14.98;73.16;94845.50;5069381;28;20202;-42
2023/05/19 02:30:48;;;;;;;4.10;3.80;;;;;;;15.00;73.15;94844.38;5068616;28;20225;-42
2023/05/19 02:33:18;;;;;;;4.10;3.73;;;;;;;15.00;73.03;94843.59;5068224;28;20695;-44
2023/05/19 02:35:46;;;;;;;3.77;3.47;;;;;;;14.96;73.00;94839.72;5068706;28;20194;-43
2023/05/19 02:38:13;;;;;;;4.40;3.67;;;;;;;14.97;73.25;94831.03;5068833;28;20190;-46
2023/05/19 02:40:39;;;;;;;5.37;3.97;;;;;;;14.94;73.33;94845.03;5068885;28;20187;-44
2023/05/19 02:43:06;;;;;;;4.60;4.23;;;;;;;14.93;73.24;94845.19;5068255;28;20183;-44
2023/05/19 02:45:33;;;;;;;6.50;4.20;;;;;;;14.91;73.38;94847.13;5068322;28;20210;-45
2023/05/19 02:48:00;;;;;;;3.80;3.50;;;;;;;14.90;73.46;94853.25;5068448;28;20661;-42
2023/05/19 02:50:27;;;;;;;4.70;4.30;;;;;;;14.85;73.23;94842.59;5068693;28;20198;-44
2023/05/19 02:52:55;;;;;;;5.30;4.50;;;;;;;14.86;73.38;94852.75;5068493;28;20194;-44
2023/05/19 02:55:22;;;;;;;5.07;4.57;;;;;;;14.86;73.33;94851.97;5067866;28;20232;-43
2023/05/19 02:57:48;;;;;;;6.03;4.10;;;;;;;14.84;73.27;94846.94;5068089;28;20670;-43
2023/05/19 03:00:16;;;;;;;8.03;4.47;;;;;;;14.85;73.41;94837.44;5068219;28;20195;-43
2023/05/19 03:02:43;;;;;;;4.17;3.83;;;;;;;14.84;73.57;94854.66;5068862;28;20186;-45
2023/05/19 03:05:10;;;;;;;4.27;3.83;;;;;;;14.83;73.25;94857.41;5071365;28;20261;-42
2023/05/19 03:07:37;;;;;;;5.47;4.00;;;;;;;14.85;73.43;94851.13;5073246;28;20679;-46
2023/05/19 03:10:07;;;;;;;4.50;4.10;;;;;;;14.86;73.39;94857.09;5069268;28;20195;-44
2023/05/19 03:12:34;;;;;;;5.37;4.80;;;;;;;14.84;73.40;94854.66;5069329;28;20294;-45
2023/05/19 03:15:01;;;;;;;6.20;4.23;;;;;;;14.90;73.19;94869.50;5068287;28;20570;-45
2023/05/19 03:17:32;;;;;;;5.60;4.57;;;;;;;14.91;73.28;94854.84;5068284;28;20655;-44
2023/05/19 03:19:59;;;;;;;5.23;4.47;;;;;;;14.82;72.99;94842.94;5068245;28;20188;-45
2023/05/19 03:22:27;;;;;;;5.10;4.60;;;;;;;14.98;73.19;94869.50;5066953;28;20197;-43
2023/05/19 03:24:53;;;;;;;5.40;4.90;;;;;;;15.01;73.05;94852.91;5067830;28;20230;-42
2023/05/19 03:27:21;;;;;;;5.23;4.77;;;;;;;15.01;72.87;94858.06;5066868;28;20175;-43
2023/05/19 03:29:48;;;;;;;5.37;4.87;;;;;;;15.06;72.81;94851.44;5067922;28;20251;-47
2023/05/19 03:32:15;;;;;;;5.33;4.83;;;;;;;15.11;72.75;94863.03;5069008;28;20193;-42
2023/05/19 03:34:42;;;;;;;5.63;5.10;;;;;;;15.16;72.88;94850.50;5067298;28;20276;-45
2023/05/19 03:37:09;;;;;;;5.30;4.80;;;;;;;15.17;72.76;94854.69;5068273;28;20205;-45
2023/05/19 03:39:36;;;;;;;5.40;4.90;;;;;;;15.01;72.44;94833.09;5067385;28;20194;-52
2023/05/19 03:42:03;;;;;;;6.70;4.97;;;;;;;15.18;72.40;94843.41;5068082;28;20186;-46
2023/05/19 03:44:31;;;;;;;5.60;4.60;;;;;;;15.34;72.35;94860.63;5068084;28;20225;-45
2023/05/19 03:46:58;;;;;;;6.07;5.50;;;;;;;15.40;72.37;94867.72;5068111;28;20221;-46
2023/05/19 03:49:25;;;;;;;5.40;4.83;;;;;;;15.46;72.06;94861.91;5067408;28;20259;-44
2023/05/19 03:51:52;;;;;;;5.43;4.93;;;;;;;15.49;72.08;94851.25;5067187;28;20661;-44
2023/05/19 03:54:19;;;;;;;5.37;4.87;;;;;;;15.58;71.96;94850.28;5064138;28;20190;-45
2023/05/19 03:56:46;;;;;;;5.10;4.60;;;;;;;15.64;71.61;94861.72;5067781;28;20682;-44
2023/05/19 03:59:15;;;;;;;6.93;5.27;;;;;;;15.20;71.56;94789.97;5068138;28;20561;-43
2023/05/19 04:01:43;;;;;;;7.23;5.50;;;;;;;15.76;71.49;94868.19;5067646;28;20569;-45
2023/05/19 04:04:09;;;;;;;5.67;5.13;;;;;;;15.81;71.52;94868.47;5068033;28;20197;-44
2023/05/19 04:06:36;;;;;;;6.40;5.30;;;;;;;15.93;71.30;94874.06;5067781;28;20226;-42
2023/05/19 04:09:04;;;;;;;7.00;4.53;;;;;;;15.99;71.06;94861.31;5068455;28;20305;-43
2023/05/19 04:11:31;;;;;;;6.43;5.83;;;;;;;16.17;70.76;94873.19;5070481;28;20281;-45
2023/05/19 04:13:58;;;;;;;5.93;4.97;;;;;;;16.31;70.55;94869.91;5073996;28;20198;-45
2023/05/19 04:16:24;;;;;;;8.33;5.60;;;;;;;16.49;70.00;94874.81;5074977;28;20362;-44
2023/05/19 04:18:53;;;;;;;6.10;5.50;;;;;;;16.67;69.78;94872.00;5073139;28;20269;-43
2023/05/19 04:21:21;;;;;;;6.10;5.50;;;;;;;16.83;69.55;94871.09;5071112;28;20198;-42
2023/05/19 04:23:48;;;;;;;6.37;5.37;;;;;;;16.98;69.10;94875.38;5070121;28;20222;-43
2023/05/19 04:26:15;;;;;;;6.77;5.57;;;;;;;17.14;68.87;94886.53;5070978;28;20221;-43
2023/05/19 04:28:43;;;;;;;6.20;5.33;;;;;;;17.30;68.49;94887.22;5071703;28;20201;-46
2023/05/19 04:31:11;;;;;;;6.60;5.40;;;;;;;17.44;68.26;94882.25;5071046;28;20584;-46
2023/05/19 04:33:38;;;;;;;7.07;6.00;;;;;;;17.61;68.04;94881.13;5071415;28;20190;-45
2023/05/19 04:36:09;;;;;;;6.03;5.43;;;;;;;17.77;67.66;94877.63;5071440;28;20696;-45
2023/05/19 04:38:38;;;;;;;5.63;5.13;;;;;;;17.93;67.09;94876.66;5071315;28;20278;-46
2023/05/19 04:41:09;;;;;;;6.23;5.70;;;;;;;18.27;66.92;94896.81;5071228;28;20269;-42
2023/05/19 04:43:35;;;;;;;6.20;5.53;;;;;;;18.47;66.44;94890.06;5070832;28;20198;-44
2023/05/19 04:46:04;;;;;;;7.57;3.70;;;;;;;18.76;78.54;94891.84;5071085;28;20218;-44
2023/05/19 04:48:32;;;;;;;6.17;4.20;;;;;;;19.10;79.19;94892.19;5070509;28;20198;-43
2023/05/19 04:51:00;;;;;;;7.27;4.47;;;;;;;19.29;77.20;94888.94;5070726;28;20202;-45
2023/05/19 04:53:28;;;;;;;6.60;5.03;;;;;;;19.49;75.83;94896.91;5069835;28;20668;-43
2023/05/19 04:55:55;;;;;;;5.20;4.70;;;;;;;19.59;74.84;94884.41;5070754;28;20564;-44
2023/05/19 04:58:24;;;;;;;7.17;4.97;;;;;;;19.69;73.70;94878.91;5070384;28;20194;-44
2023/05/19 05:00:51;;;;;;;6.40;5.07;;;;;;;20.01;72.56;94887.91;5070062;28;20305;-46
2023/05/19 05:03:21;;;;;;;7.30;4.17;;;;;;;20.49;79.81;94887.97;5070552;28;20198;-46
2023/05/19 05:05:48;;;;;;;5.40;4.10;;;;;;;21.08;79.82;94894.34;5070384;28;20229;-46
2023/05/19 05:08:20;;;;;;;12.70;4.75;;;;;;;21.68;77.57;94896.03;5070261;28;20641;-46
2023/05/19 05:10:50;;;;;;;4.88;4.13;;;;;;;22.35;74.59;94888.91;5070936;28;20225;-44
2023/05/19 05:13:17;;;;;;;6.63;4.28;;;;;;;22.77;72.14;94876.31;5069904;28;20858;-46
2023/05/19 05:15:44;;;;;;;5.82;4.13;;;;;;;23.52;70.50;94899.91;5070213;28;20236;-45
2023/05/19 05:18:12;;;;;;;5.40;4.05;;;;;;;24.15;69.12;94896.41;5070414;28;20642;-47
2023/05/19 05:20:40;;;;;;;4.85;3.50;;;;;;;24.77;68.03;94907.56;5066863;28;20202;-42
2023/05/19 05:23:08;;;;;;;4.25;3.30;;;;;;;25.30;67.03;94906.88;5064983;28;20198;-46
2023/05/19 05:25:35;;;;;;;5.38;3.60;;;;;;;25.76;66.19;94900.94;5059927;28;20279;-45
2023/05/19 05:28:04;;;;;;;4.15;3.00;;;;;;;26.23;64.88;94900.16;5068148;28;20194;-47
2023/05/19 05:30:31;;;;;;;4.00;3.67;;;;;;;26.67;63.94;94896.09;5068702;28;20197;-45
2023/05/19 05:32:58;;;;;;;3.70;3.28;;;;;;;27.07;62.72;94892.63;5068489;28;20190;-44
2023/05/19 05:35:25;;;;;;;8.65;3.28;;;;;;;27.48;61.40;94898.63;5069819;28;20182;-45
2023/05/19 05:37:52;;;;;;;6.82;3.83;;;;;;;27.85;60.76;94904.22;5070943;28;20189;-48
2023/05/19 05:40:19;;;;;;;3.90;3.58;;;;;;;28.19;59.68;94912.03;5068404;28;20191;-48
2023/05/19 05:42:46;;;;;;;9.75;4.05;;;;;;;28.48;58.47;94912.72;5049559;28;20599;-48
2023/05/19 05:45:14;;;;;;;22.73;4.43;;;;;;;28.81;58.07;94914.47;5048495;28;20622;-46
2023/05/19 05:47:41;;;;;;;12.57;4.10;;;;;;;29.19;56.80;94910.16;5067623;28;20269;-47
2023/05/19 05:50:10;;;;;;;15.60;4.05;;;;;;;29.50;55.92;94908.59;5066625;28;20186;-46
2023/05/19 05:52:38;;;;;;;12.23;4.82;;;;;;;29.78;55.02;94911.97;5066600;28;20295;-46
2023/05/19 05:55:07;;;;;;;7.80;4.32;;;;;;;30.02;54.68;94913.22;5066367;28;20202;-46
2023/05/19 05:57:35;;;;;;;10.82;5.50;;;;;;;30.22;54.20;94916.03;5066406;28;20657;-48
2023/05/19 06:00:04;;;;;;;11.45;4.90;;;;;;;30.42;53.36;94915.31;5066602;28;20214;-45
2023/05/19 06:02:32;;;;;;;9.32;4.82;;;;;;;30.61;53.26;94915.66;5067323;28;20213;-47
2023/05/19 06:04:59;;;;;;;13.15;6.10;;;;;;;30.42;52.37;94874.94;5067507;28;20194;-43
2023/05/19 06:07:26;;;;;;;12.70;5.15;;;;;;;30.94;51.99;94935.63;5066780;28;20249;-52
2023/05/19 06:09:53;;;;;;;8.95;4.95;;;;;;;31.01;51.83;94929.31;5067456;28;20193;-43
2023/05/19 06:12:21;;;;;;;7.43;4.75;;;;;;;31.24;51.50;94934.91;5067153;28;20190;-45
2023/05/19 06:14:48;;;;;;;10.02;4.85;;;;;;;31.39;51.03;94931.56;5066961;28;20712;-45
2023/05/19 06:17:15;;;;;;;10.68;4.97;;;;;;;31.52;50.71;94930.25;5066385;28;20721;-46
2023/05/19 06:19:43;;;;;;;13.02;4.82;;;;;;;31.67;50.20;94932.88;5066833;28;20190;-45
2023/05/19 06:22:10;;;;;;;9.48;5.78;;;;;;;31.81;49.87;94930.50;5066344;28;20666;-45
2023/05/19 06:24:36;;;;;;;10.05;4.57;;;;;;;31.97;49.46;94931.31;5066595;28;20592;-44
2023/05/19 06:27:04;;;;;;;8.80;5.00;;;;;;;32.09;49.12;94936.34;5066240;28;20226;-46
2023/05/19 06:29:30;;;;;;;9.25;4.90;;;;;;;32.21;48.80;94934.19;5066505;28;20182;-48
2023/05/19 06:31:57;;;;;;;7.95;4.82;;;;;;;32.30;48.16;94931.78;5066438;28;20271;-46
2023/05/19 06:34:24;;;;;;;12.35;5.50;;;;;;;32.38;47.97;94924.13;5066247;28;20201;-44
2023/05/19 06:36:52;;;;;;;8.40;4.88;;;;;;;32.46;47.78;94931.50;5066344;28;20221;-44
2023/05/19 06:39:19;;;;;;;9.68;4.97;;;;;;;32.52;47.49;94929.66;5066818;28;20198;-44
2023/05/19 06:41:46;;;;;;;7.03;4.88;;;;;;;32.61;47.28;94938.63;5066982;28;20581;-46
2023/05/19 06:44:12;;;;;;;7.95;4.82;;;;;;;32.66;47.25;94925.38;5067256;28;20206;-45
2023/05/19 06:46:39;;;;;;;8.48;4.88;;;;;;;32.71;46.92;94940.44;5066705;28;20272;-46
2023/05/19 06:49:06;;;;;;;9.93;5.53;;;;;;;32.77;46.78;94936.69;5066780;28;20236;-47
2023/05/19 06:51:34;;;;;;;9.73;4.82;;;;;;;32.83;46.23;94935.63;5066128;28;20202;-45
2023/05/19 06:54:02;;;;;;;6.32;5.43;;;;;;;32.87;46.30;94946.50;5066266;28;20194;-46
2023/05/19 06:56:29;;;;;;;9.52;4.63;;;;;;;32.77;46.16;94925.31;5066074;28;20627;-46
2023/05/19 06:58:55;;;;;;;5.70;4.63;;;;;;;32.91;46.18;94951.00;5066218;28;20669;-45
2023/05/19 07:01:22;;;;;;;6.57;4.32;;;;;;;32.95;46.08;94957.34;5066183;28;20565;-46
2023/05/19 07:03:49;;;;;;;8.10;4.75;;;;;;;33.00;45.99;94947.78;5066231;28;20217;-44
2023/05/19 07:06:16;;;;;;;8.02;4.68;;;;;;;33.03;45.69;94949.88;5066010;28;20283;-45
2023/05/19 07:08:42;;;;;;;5.85;4.35;;;;;;;32.97;45.88;94934.00;5066030;28;20190;-45
2023/05/19 07:11:11;;;;;;;5.25;4.20;;;;;;;33.13;45.59;94942.69;5066245;28;20194;-46
2023/05/19 07:13:38;;;;;;;6.43;4.22;;;;;;;33.17;45.56;94951.66;5066075;28;20190;-44
2023/05/19 07:16:05;;;;;;;6.40;4.75;;;;;;;32.91;45.75;94932.44;5065508;28;20179;-44
2023/05/19 07:18:32;;;;;;;6.30;4.18;;;;;;;32.92;45.70;94960.53;5066121;28;20221;-45
2023/05/19 07:20:59;;;;;;;5.85;4.57;;;;;;;32.97;45.72;94949.09;5066120;28;20198;-44
2023/05/19 07:23:25;;;;;;;6.10;4.25;;;;;;;33.09;45.52;94949.59;5065980;28;20997;-44
2023/05/19 07:25:55;;;;;;;6.25;3.97;;;;;;;33.16;45.22;94959.88;5066754;28;20214;-46
2023/05/19 07:28:23;;;;;;;5.03;4.20;;;;;;;33.10;45.16;94966.28;5065261;28;21031;-45
2023/05/19 07:30:50;;;;;;;8.77;4.25;;;;;;;32.83;45.51;94956.81;5065803;28;20187;-43
2023/05/19 07:33:17;;;;;;;5.65;4.68;;;;;;;32.71;45.85;94956.34;5065320;28;20601;-48
2023/05/19 07:35:44;;;;;;;5.10;4.13;;;;;;;32.67;45.66;94942.84;5066035;28;20271;-45
2023/05/19 07:38:11;;;;;;;4.57;4.15;;;;;;;32.79;45.62;94942.53;5066183;28;20193;-46
2023/05/19 07:40:38;;;;;;;5.32;4.82;;;;;;;32.90;45.26;94952.03;5065476;28;20196;-45
2023/05/19 07:43:04;;;;;;;4.20;3.80;;;;;;;32.77;45.23;94957.91;5065423;28;20588;-45
2023/05/19 07:45:32;;;;;;;4.03;3.63;;;;;;;32.66;45.50;94956.38;5066661;28;20765;-46
2023/05/19 07:47:59;;;;;;;5.78;4.80;;;;;;;32.56;45.67;94949.25;5070174;28;20190;-47
2023/05/19 07:50:26;;;;;;;4.70;4.20;;;;;;;32.46;45.69;94949.25;5070137;28;20665;-46
2023/05/19 07:52:53;;;;;;;6.10;4.20;;;;;;;32.40;45.54;94939.75;5069758;28;20700;-46
2023/05/19 07:55:21;;;;;;;5.75;4.00;;;;;;;32.57;45.45;94950.03;5069062;28;20187;-44
2023/05/19 07:57:49;;;;;;;4.07;3.47;;;;;;;32.59;45.47;94951.34;5068909;28;20193;-44
2023/05/19 08:00:16;;;;;;;5.30;4.07;;;;;;;32.53;45.20;94960.38;5069780;28;20210;-44
2023/05/19 08:02:45;;;;;;;3.92;3.40;;;;;;;32.49;45.19;94951.38;5069144;28;20209;-45
2023/05/19 08:05:12;;;;;;;7.30;4.20;;;;;;;32.52;45.18;94947.41;5070146;28;20202;-46
2023/05/19 08:07:38;;;;;;;6.43;4.47;;;;;;;32.53;45.16;94943.69;5069006;28;20249;-43
2023/05/19 08:10:06;;;;;;;7.78;4.70;;;;;;;32.53;44.98;94954.28;5069637;28;20580;-47
2023/05/19 08:12:32;;;;;;;6.80;4.70;;;;;;;32.56;45.02;94951.91;5068789;28;20646;-46
2023/05/19 08:14:59;;;;;;;5.03;4.40;;;;;;;32.52;45.18;94952.72;5069693;28;20182;-47
2023/05/19 08:17:26;;;;;;;6.68;3.90;;;;;;;32.42;45.16;94945.56;5069336;28;20273;-44
2023/05/19 08:19:54;;;;;;;5.20;4.00;;;;;;;32.36;45.41;94951.91;5069530;28;20190;-44
2023/05/19 08:22:21;;;;;;;4.43;4.00;;;;;;;32.28;45.48;94947.16;5068855;28;20570;-44
2023/05/19 08:24:50;;;;;;;6.28;3.72;;;;;;;32.21;45.45;94956.19;5069144;28;20648;-44
2023/05/19 08:27:17;;;;;;;4.18;3.47;;;;;;;32.15;45.36;94946.66;5069020;28;20220;-47
2023/05/19 08:29:44;;;;;;;5.18;3.70;;;;;;;32.17;45.39;94947.19;5069422;28;20205;-46
2023/05/19 08:32:10;;;;;;;4.72;4.18;;;;;;;32.12;45.21;94944.53;5069330;28;20190;-45
2023/05/19 08:34:37;;;;;;;6.47;4.40;;;;;;;32.13;45.64;94951.44;5068743;28;20183;-45
2023/05/19 08:37:06;;;;;;;5.75;4.32;;;;;;;32.07;45.49;94949.03;5068916;28;20279;-45
2023/05/19 08:39:34;;;;;;;7.55;4.55;;;;;;;32.03;45.80;94942.69;5068494;28;20603;-46
2023/05/19 08:42:01;;;;;;;11.00;4.57;;;;;;;32.00;46.21;94938.75;5068712;28;20285;-45
2023/05/19 08:44:29;;;;;;;6.22;4.50;;;;;;;31.95;46.25;94936.88;5068519;28;20186;-45
2023/05/19 08:46:57;;;;;;;7.40;4.55;;;;;;;31.88;46.05;94941.66;5069028;28;20230;-46
2023/05/19 08:49:27;;;;;;;5.82;4.53;;;;;;;31.79;46.39;94935.28;5068575;28;20212;-46
2023/05/19 08:52:00;;;;;;;6.72;4.72;;;;;;;31.67;46.61;94940.03;5066837;28;20479;-44
2023/05/19 08:54:33;;;;;;;6.75;4.55;;;;;;;31.52;46.63;94938.19;5068645;28;20198;-44
2023/05/19 08:57:01;;;;;;;7.78;5.00;;;;;;;31.41;46.56;94945.28;5068449;28;20194;-46
2023/05/19 08:59:28;;;;;;;11.18;5.30;;;;;;;31.28;46.65;94934.41;5065823;28;20221;-46
2023/05/19 09:01:56;;;;;;;6.88;4.85;;;;;;;31.13;46.68;94929.84;5068347;28;20967;-44
2023/05/19 09:04:26;;;;;;;8.10;4.97;;;;;;;31.03;46.38;94930.63;5065834;28;20736;-44
2023/05/19 09:06:53;;;;;;;7.65;5.50;;;;;;;30.91;46.55;94935.34;5068313;28;20247;-46
2023/05/19 09:09:20;;;;;;;8.90;5.38;;;;;;;30.79;46.77;94927.66;5069151;28;20244;-45
2023/05/19 09:11:48;;;;;;;8.43;5.90;;;;;;;30.64;46.98;94917.78;5070268;28;20194;-45
2023/05/19 09:14:15;;;;;;;5.97;5.00;;;;;;;30.40;47.07;94898.97;5068932;28;20562;-44
2023/05/19 09:16:43;;;;;;;6.72;5.05;;;;;;;30.41;47.05;94919.03;5068671;28;20190;-44
2023/05/19 09:19:14;;;;;;;9.20;5.63;;;;;;;30.10;47.22;94889.00;5068286;28;20248;-45
2023/05/19 09:21:41;;;;;;;8.20;5.65;;;;;;;30.18;47.23;94935.22;5068393;28;20229;-45
2023/05/19 09:24:09;;;;;;;13.40;6.15;;;;;;;30.04;47.49;94929.56;5067592;28;20650;-47
2023/05/19 09:26:38;;;;;;;6.50;5.10;;;;;;;29.91;47.61;94922.91;5068151;28;20247;-45
2023/05/19 09:29:12;;;;;;;8.02;6.00;;;;;;;29.83;47.47;94914.66;5067477;28;20190;-46
2023/05/19 09:31:39;;;;;;;7.38;5.68;;;;;;;29.60;47.68;94898.16;5067658;28;20284;-44
2023/05/19 09:34:12;;;;;;;6.55;5.93;;;;;;;29.62;47.31;94919.78;5068472;28;20206;-44
2023/05/19 09:36:40;;;;;;;6.60;5.75;;;;;;;29.55;47.75;94915.75;5070177;28;20202;-45
2023/05/19 09:39:13;;;;;;;8.40;6.00;;;;;;;29.39;47.71;94915.59;5067861;28;20221;-43
2023/05/19 09:41:40;;;;;;;7.53;5.40;;;;;;;29.21;48.17;94913.31;5067746;28;20272;-44
2023/05/19 09:44:07;;;;;;;7.38;6.03;;;;;;;29.10;48.26;94917.69;5067523;28;20198;-44
2023/05/19 09:46:35;;;;;;;11.07;6.00;;;;;;;28.94;48.53;94908.00;5067725;28;20246;-44
2023/05/19 09:49:09;;;;;;;6.72;6.00;;;;;;;28.85;48.76;94901.59;5067390;28;20247;-45
2023/05/19 09:51:36;;;;;;;7.18;6.07;;;;;;;28.86;48.76;94903.97;5067057;28;20293;-44
2023/05/19 09:54:04;;;;;;;13.70;6.93;;;;;;;28.87;48.54;94902.94;5069583;28;20202;-45
2023/05/19 09:56:34;;;;;;;9.60;7.10;;;;;;;28.88;48.24;94911.63;5067370;28;20277;-44
2023/05/19 09:59:03;;;;;;;9.93;6.50;;;;;;;28.83;48.26;94909.72;5067672;28;20187;-46
2023/05/19 10:01:32;;;;;;;13.38;6.50;;;;;;;28.65;48.71;94881.88;5069588;28;20534;-45
2023/05/19 10:04:00;;;;;;;10.43;7.20;;;;;;;28.73;48.72;94896.47;5069923;28;20247;-46
2023/05/19 10:06:27;;;;;;;6.55;5.90;;;;;;;28.57;48.13;94871.78;5069563;28;20281;-44
2023/05/19 10:08:55;;;;;;;7.93;6.72;;;;;;;28.67;47.91;94900.88;5069069;28;20687;-46
2023/05/19 10:11:23;;;;;;;8.93;7.35;;;;;;;28.47;47.17;94880.38;5069842;28;20213;-47
2023/05/19 10:13:51;;;;;;;9.80;6.97;;;;;;;28.53;47.18;94883.84;5069497;28;20206;-43
2023/05/19 10:16:21;;;;;;;7.57;6.50;;;;;;;28.52;46.89;94890.16;5069714;28;20187;-45
2023/05/19 10:18:52;;;;;;;12.73;7.90;;;;;;;28.48;47.14;94887.22;5069544;28;20277;-45
2023/05/19 10:21:21;;;;;;;7.65;6.82;;;;;;;28.44;47.08;94894.00;5069397;28;20194;-46
2023/05/19 10:23:47;;;;;;;7.75;6.97;;;;;;;28.40;47.04;94889.47;5069021;28;20706;-46
2023/05/19 10:26:15;;;;;;;7.30;6.60;;;;;;;28.18;46.66;94871.00;5069741;28;20639;-45
2023/05/19 10:28:45;;;;;;;8.82;6.57;;;;;;;28.18;46.75;94887.59;5069379;28;20253;-46
2023/05/19 10:31:18;;;;;;;10.25;6.90;;;;;;;27.99;46.94;94887.06;5069383;28;20194;-46
2023/05/19 10:34:05;;;;;;;8.88;7.15;;;;;;;27.78;47.05;94872.03;5070340;28;20193;-45
2023/05/19 10:36:45;;;;;;;12.82;7.65;;;;;;;27.74;47.17;94887.50;5068989;28;20194;-45
2023/05/19 10:39:18;;;;;;;7.72;6.93;;;;;;;27.75;47.14;94883.81;5068226;28;20253;-45
2023/05/19 10:41:58;;;;;;;8.57;7.18;;;;;;;27.73;46.73;94878.03;5069328;28;20269;-44
2023/05/19 10:44:39;;;;;;;8.13;7.18;;;;;;;27.47;47.30;94850.53;5069081;28;20596;-43
2023/05/19 10:47:06;;;;;;;8.32;7.53;;;;;;;27.56;46.99;94871.16;5066650;28;20225;-46
2023/05/19 10:49:35;;;;;;;8.80;7.90;;;;;;;27.51;47.11;94872.66;5066515;28;20210;-46
2023/05/19 10:52:03;;;;;;;11.20;7.22;;;;;;;27.57;47.09;94873.53;5066404;28;20210;-47
2023/05/19 10:54:42;;;;;;;8.10;7.30;;;;;;;27.64;46.97;94865.50;5069080;28;20269;-46
2023/05/19 10:57:08;;;;;;;11.05;7.57;;;;;;;27.69;46.53;94862.94;5068969;28;20204;-44
2023/05/19 10:59:38;;;;;;;8.13;7.32;;;;;;;27.73;46.19;94857.00;5068574;28;20245;-50
2023/05/19 11:02:05;;;;;;;7.60;6.88;;;;;;;27.74;46.23;94858.59;5068903;28;20198;-44
2023/05/19 11:04:49;;;;;;;8.32;7.38;;;;;;;27.70;46.23;94864.53;5068603;28;20195;-45
2023/05/19 11:07:20;;;;;;;7.95;7.15;;;;;;;27.64;46.11;94850.53;5068693;28;20228;-43
2023/05/19 11:09:51;;;;;;;9.55;7.68;;;;;;;27.61;46.18;94839.69;5068437;28;20201;-43
2023/05/19 11:12:29;;;;;;;7.78;6.97;;;;;;;27.69;45.75;94852.44;5068580;28;20278;-46
2023/05/19 11:14:59;;;;;;;7.82;7.07;;;;;;;27.53;45.77;94827.75;5068463;28;20204;-47
2023/05/19 11:17:26;;;;;;;8.45;7.60;;;;;;;27.60;46.16;94848.63;5069037;28;20190;-44
2023/05/19 11:19:55;;;;;;;9.75;7.35;;;;;;;27.44;46.06;94858.88;5068074;28;20255;-47
2023/05/19 11:22:25;;;;;;;8.13;7.32;;;;;;;27.32;46.64;94867.88;5068220;28;20672;-47
2023/05/19 11:24:54;;;;;;;7.97;7.10;;;;;;;27.29;46.50;94848.16;5068361;28;20234;-45
2023/05/19 11:27:27;;;;;;;9.35;7.25;;;;;;;27.24;46.66;94854.09;5069119;28;20218;-46
2023/05/19 11:29:54;;;;;;;9.00;7.68;;;;;;;27.17;46.21;94860.53;5068763;28;20677;-46
2023/05/19 11:32:22;;;;;;;10.30;7.43;;;;;;;27.10;46.43;94850.19;5066247;28;20824;-43
2023/05/19 11:34:49;;;;;;;10.73;8.38;;;;;;;27.07;46.51;94855.06;5066288;28;20197;-44
2023/05/19 11:37:16;;;;;;;8.05;7.20;;;;;;;27.01;46.60;94848.94;5065888;28;20224;-44
2023/05/19 11:39:45;;;;;;;10.55;8.02;;;;;;;26.45;47.57;94771.84;5065054;28;20183;-44